sensor_id;sensor_type;location;lat;lon;timestamp;pressure;altitude;pressure_sealevel;temperature;humidity
39487;BME280;25173;50.430;18.926;2023-03-18T00:02:54;98414.97;;;7.88;40.16
39487;BME280;25173;50.430;18.926;2023-03-18T00:06:15;98416.13;;;7.92;40.11
39487;BME280;25173;50.430;18.926;2023-03-18T00:09:16;98407.41;;;7.90;40.02
39487;BME280;25173;50.430;18.926;2023-03-18T00:12:17;98408.47;;;7.89;40.02
39487;BME280;25173;50.430;18.926;2023-03-18T00:15:18;98413.56;;;7.86;40.25
39487;BME280;25173;50.430;18.926;2023-03-18T00:18:19;98416.44;;;7.79;40.23
39487;BME280;25173;50.430;18.926;2023-03-18T00:21:19;98412.38;;;7.76;40.30
39487;BME280;25173;50.430;18.926;2023-03-18T00:24:20;98417.22;;;7.74;40.38
39487;BME280;25173;50.430;18.926;2023-03-18T00:27:21;98413.09;;;7.72;40.31
39487;BME280;25173;50.430;18.926;2023-03-18T00:30:22;98413.09;;;7.72;40.40
39487;BME280;25173;50.430;18.926;2023-03-18T00:33:23;98409.25;;;7.68;40.39
39487;BME280;25173;50.430;18.926;2023-03-18T00:36:23;98402.69;;;7.64;40.45
39487;BME280;25173;50.430;18.926;2023-03-18T00:39:27;98402.69;;;7.64;40.65
39487;BME280;25173;50.430;18.926;2023-03-18T00:42:28;98403.19;;;7.61;40.51
39487;BME280;25173;50.430;18.926;2023-03-18T00:45:37;98393.66;;;7.58;40.65
39487;BME280;25173;50.430;18.926;2023-03-18T00:48:38;98390.63;;;7.55;40.57
39487;BME280;25173;50.430;18.926;2023-03-18T00:51:39;98393.00;;;7.51;40.77
39487;BME280;25173;50.430;18.926;2023-03-18T00:54:41;98384.00;;;7.46;41.07
39487;BME280;25173;50.430;18.926;2023-03-18T00:57:42;98378.25;;;7.42;41.05
39487;BME280;25173;50.430;18.926;2023-03-18T01:00:43;98381.22;;;7.40;41.01
39487;BME280;25173;50.430;18.926;2023-03-18T01:03:46;98384.66;;;7.36;41.19
39487;BME280;25173;50.430;18.926;2023-03-18T01:06:47;98384.34;;;7.32;41.19
39487;BME280;25173;50.430;18.926;2023-03-18T01:09:47;98379.16;;;7.31;41.28
39487;BME280;25173;50.430;18.926;2023-03-18T01:12:48;98376.69;;;7.29;41.28
39487;BME280;25173;50.430;18.926;2023-03-18T01:15:49;98368.56;;;7.29;41.31
39487;BME280;25173;50.430;18.926;2023-03-18T01:18:51;98371.53;;;7.28;41.33
39487;BME280;25173;50.430;18.926;2023-03-18T01:21:52;98365.56;;;7.26;41.03
39487;BME280;25173;50.430;18.926;2023-03-18T01:24:54;98363.31;;;7.23;41.16
39487;BME280;25173;50.430;18.926;2023-03-18T01:28:02;98360.56;;;7.18;41.24
39487;BME280;25173;50.430;18.926;2023-03-18T01:31:04;98349.88;;;7.11;41.46
39487;BME280;25173;50.430;18.926;2023-03-18T01:34:05;98344.06;;;7.03;41.57
39487;BME280;25173;50.430;18.926;2023-03-18T01:37:16;98345.59;;;6.98;41.65
39487;BME280;25173;50.430;18.926;2023-03-18T01:40:20;98349.00;;;6.89;41.64
39487;BME280;25173;50.430;18.926;2023-03-18T01:43:26;98342.09;;;6.81;41.84
39487;BME280;25173;50.430;18.926;2023-03-18T01:46:42;98343.41;;;6.79;42.08
39487;BME280;25173;50.430;18.926;2023-03-18T01:49:48;98341.69;;;6.73;42.16
39487;BME280;25173;50.430;18.926;2023-03-18T01:52:54;98340.28;;;6.70;42.04
39487;BME280;25173;50.430;18.926;2023-03-18T01:55:55;98339.13;;;6.66;42.42
39487;BME280;25173;50.430;18.926;2023-03-18T01:58:58;98336.41;;;6.66;42.42
39487;BME280;25173;50.430;18.926;2023-03-18T02:02:06;98332.06;;;6.65;42.40
39487;BME280;25173;50.430;18.926;2023-03-18T02:05:11;98338.53;;;6.64;42.40
39487;BME280;25173;50.430;18.926;2023-03-18T02:08:13;98333.28;;;6.57;42.52
39487;BME280;25173;50.430;18.926;2023-03-18T02:11:13;98327.53;;;6.54;42.50
39487;BME280;25173;50.430;18.926;2023-03-18T02:14:24;98343.94;;;6.47;42.90
39487;BME280;25173;50.430;18.926;2023-03-18T02:17:29;98334.56;;;6.38;42.99
39487;BME280;25173;50.430;18.926;2023-03-18T02:27:00;98321.41;;;6.13;43.66
39487;BME280;25173;50.430;18.926;2023-03-18T02:30:20;98326.97;;;6.07;43.79
39487;BME280;25173;50.430;18.926;2023-03-18T02:33:28;98321.19;;;6.03;43.70
39487;BME280;25173;50.430;18.926;2023-03-18T02:36:32;98330.03;;;5.99;43.56
39487;BME280;25173;50.430;18.926;2023-03-18T02:39:35;98326.75;;;5.97;43.61
39487;BME280;25173;50.430;18.926;2023-03-18T02:42:36;98330.19;;;5.92;43.50
39487;BME280;25173;50.430;18.926;2023-03-18T02:48:52;98329.47;;;5.85;44.17
39487;BME280;25173;50.430;18.926;2023-03-18T02:51:54;98334.16;;;5.90;43.88
39487;BME280;25173;50.430;18.926;2023-03-18T02:54:54;98335.59;;;5.92;44.11
39487;BME280;25173;50.430;18.926;2023-03-18T02:57:58;98343.19;;;5.95;43.77
39487;BME280;25173;50.430;18.926;2023-03-18T03:01:01;98342.97;;;5.97;43.89
39487;BME280;25173;50.430;18.926;2023-03-18T03:04:03;98344.03;;;5.96;43.76
39487;BME280;25173;50.430;18.926;2023-03-18T03:07:04;98345.22;;;5.88;43.83
39487;BME280;25173;50.430;18.926;2023-03-18T03:10:12;98342.97;;;5.85;43.84
39487;BME280;25173;50.430;18.926;2023-03-18T03:13:14;98343.34;;;5.89;43.98
39487;BME280;25173;50.430;18.926;2023-03-18T03:16:16;98341.00;;;5.92;43.82
39487;BME280;25173;50.430;18.926;2023-03-18T03:19:17;98346.72;;;5.96;43.92
39487;BME280;25173;50.430;18.926;2023-03-18T03:22:18;98343.06;;;6.02;43.79
39487;BME280;25173;50.430;18.926;2023-03-18T03:25:20;98348.97;;;5.99;43.71
39487;BME280;25173;50.430;18.926;2023-03-18T03:28:22;98345.44;;;5.98;43.58
39487;BME280;25173;50.430;18.926;2023-03-18T03:31:25;98345.91;;;5.95;43.82
39487;BME280;25173;50.430;18.926;2023-03-18T03:34:26;98349.91;;;5.93;43.92
39487;BME280;25173;50.430;18.926;2023-03-18T03:37:27;98354.25;;;5.94;44.17
39487;BME280;25173;50.430;18.926;2023-03-18T03:40:27;98349.34;;;5.91;44.02
39487;BME280;25173;50.430;18.926;2023-03-18T03:43:28;98351.66;;;5.87;44.04
39487;BME280;25173;50.430;18.926;2023-03-18T03:46:29;98350.25;;;5.84;44.21
39487;BME280;25173;50.430;18.926;2023-03-18T03:49:31;98354.16;;;5.77;44.15
39487;BME280;25173;50.430;18.926;2023-03-18T03:52:32;98359.78;;;5.75;44.31
39487;BME280;25173;50.430;18.926;2023-03-18T03:55:33;98360.63;;;5.76;44.29
39487;BME280;25173;50.430;18.926;2023-03-18T03:58:34;98358.25;;;5.79;44.27
39487;BME280;25173;50.430;18.926;2023-03-18T04:01:36;98365.78;;;5.77;44.27
39487;BME280;25173;50.430;18.926;2023-03-18T04:04:37;98358.97;;;5.75;44.51
39487;BME280;25173;50.430;18.926;2023-03-18T04:07:39;98349.00;;;5.75;44.42
39487;BME280;25173;50.430;18.926;2023-03-18T04:10:41;98358.97;;;5.75;44.50
39487;BME280;25173;50.430;18.926;2023-03-18T04:13:43;98360.25;;;5.72;44.52
39487;BME280;25173;50.430;18.926;2023-03-18T04:16:45;98356.41;;;5.68;44.63
39487;BME280;25173;50.430;18.926;2023-03-18T04:19:45;98359.09;;;5.68;44.76
39487;BME280;25173;50.430;18.926;2023-03-18T04:22:46;98361.81;;;5.68;44.81
39487;BME280;25173;50.430;18.926;2023-03-18T04:25:49;98358.06;;;5.69;44.80
39487;BME280;25173;50.430;18.926;2023-03-18T04:28:50;98364.28;;;5.70;44.66
39487;BME280;25173;50.430;18.926;2023-03-18T04:31:51;98361.31;;;5.71;44.91
39487;BME280;25173;50.430;18.926;2023-03-18T04:34:52;98354.16;;;5.77;44.79
39487;BME280;25173;50.430;18.926;2023-03-18T04:37:53;98354.97;;;5.77;44.97
39487;BME280;25173;50.430;18.926;2023-03-18T04:40:56;98360.94;;;5.79;44.88
39487;BME280;25173;50.430;18.926;2023-03-18T04:43:57;98361.53;;;5.81;44.55
39487;BME280;25173;50.430;18.926;2023-03-18T04:47:05;98360.38;;;5.77;44.67
39487;BME280;25173;50.430;18.926;2023-03-18T04:50:09;98356.03;;;5.76;44.91
39487;BME280;25173;50.430;18.926;2023-03-18T04:53:12;98349.94;;;5.69;44.97
39487;BME280;25173;50.430;18.926;2023-03-18T04:56:12;98357.34;;;5.62;45.03
39487;BME280;25173;50.430;18.926;2023-03-18T04:59:21;98354.41;;;5.64;45.15
39487;BME280;25173;50.430;18.926;2023-03-18T05:02:23;98358.19;;;5.63;45.20
39487;BME280;25173;50.430;18.926;2023-03-18T05:05:24;98358.66;;;5.60;45.17
39487;BME280;25173;50.430;18.926;2023-03-18T05:08:26;98353.97;;;5.55;45.20
39487;BME280;25173;50.430;18.926;2023-03-18T05:11:27;98361.72;;;5.52;45.35
39487;BME280;25173;50.430;18.926;2023-03-18T05:14:28;98358.88;;;5.58;45.38
39487;BME280;25173;50.430;18.926;2023-03-18T05:17:30;98351.97;;;5.62;45.38
39487;BME280;25173;50.430;18.926;2023-03-18T05:20:34;98364.16;;;5.65;45.42
39487;BME280;25173;50.430;18.926;2023-03-18T05:23:36;98357.69;;;5.66;45.32
39487;BME280;25173;50.430;18.926;2023-03-18T05:26:38;98351.81;;;5.69;45.34
39487;BME280;25173;50.430;18.926;2023-03-18T05:29:40;98355.44;;;5.74;45.57
39487;BME280;25173;50.430;18.926;2023-03-18T05:32:46;98364.25;;;5.81;45.64
39487;BME280;25173;50.430;18.926;2023-03-18T05:35:49;98364.97;;;5.89;45.44
39487;BME280;25173;50.430;18.926;2023-03-18T05:38:53;98372.47;;;5.98;45.53
39487;BME280;25173;50.430;18.926;2023-03-18T05:41:54;98370.78;;;6.09;45.42
39487;BME280;25173;50.430;18.926;2023-03-18T05:45:00;98381.22;;;6.17;45.31
39487;BME280;25173;50.430;18.926;2023-03-18T05:48:01;98377.16;;;6.31;45.42
39487;BME280;25173;50.430;18.926;2023-03-18T05:51:08;98378.03;;;6.48;45.16
39487;BME280;25173;50.430;18.926;2023-03-18T05:54:14;98382.31;;;6.61;45.02
39487;BME280;25173;50.430;18.926;2023-03-18T05:57:17;98377.53;;;6.80;44.99
39487;BME280;25173;50.430;18.926;2023-03-18T06:00:19;98377.19;;;6.93;44.97
39487;BME280;25173;50.430;18.926;2023-03-18T06:03:22;98382.78;;;7.03;44.96
39487;BME280;25173;50.430;18.926;2023-03-18T06:06:25;98380.56;;;7.17;44.76
39487;BME280;25173;50.430;18.926;2023-03-18T06:09:25;98381.00;;;7.25;44.51
39487;BME280;25173;50.430;18.926;2023-03-18T06:12:27;98381.81;;;7.26;44.32
39487;BME280;25173;50.430;18.926;2023-03-18T06:15:28;98379.66;;;7.28;44.38
39487;BME280;25173;50.430;18.926;2023-03-18T06:18:30;98386.47;;;7.30;44.27
39487;BME280;25173;50.430;18.926;2023-03-18T06:21:31;98388.75;;;7.38;44.38
39487;BME280;25173;50.430;18.926;2023-03-18T06:24:32;98392.38;;;7.44;44.20
39487;BME280;25173;50.430;18.926;2023-03-18T06:27:34;98393.25;;;7.50;43.92
39487;BME280;25173;50.430;18.926;2023-03-18T06:30:35;98397.31;;;7.47;44.13
39487;BME280;25173;50.430;18.926;2023-03-18T06:33:35;98390.00;;;7.48;43.93
39487;BME280;25173;50.430;18.926;2023-03-18T06:36:38;98395.97;;;7.50;44.02
39487;BME280;25173;50.430;18.926;2023-03-18T06:39:43;98402.31;;;7.55;43.90
39487;BME280;25173;50.430;18.926;2023-03-18T06:42:46;98406.47;;;7.63;43.97
39487;BME280;25173;50.430;18.926;2023-03-18T06:46:09;98402.53;;;7.70;44.09
39487;BME280;25173;50.430;18.926;2023-03-18T06:49:12;98403.47;;;7.81;43.85
39487;BME280;25173;50.430;18.926;2023-03-18T06:52:19;98411.00;;;7.96;44.01
39487;BME280;25173;50.430;18.926;2023-03-18T06:55:22;98414.16;;;8.09;43.87
39487;BME280;25173;50.430;18.926;2023-03-18T06:58:23;98414.66;;;8.28;43.44
39487;BME280;25173;50.430;18.926;2023-03-18T07:01:38;98416.78;;;8.43;43.42
39487;BME280;25173;50.430;18.926;2023-03-18T07:04:39;98421.03;;;8.61;43.32
39487;BME280;25173;50.430;18.926;2023-03-18T07:07:39;98414.47;;;8.83;43.33
39487;BME280;25173;50.430;18.926;2023-03-18T07:10:41;98424.78;;;9.08;43.35
39487;BME280;25173;50.430;18.926;2023-03-18T07:13:46;98437.72;;;9.28;43.21
39487;BME280;25173;50.430;18.926;2023-03-18T07:16:54;98446.84;;;9.49;43.60
39487;BME280;25173;50.430;18.926;2023-03-18T07:19:56;98439.41;;;9.71;43.21
39487;BME280;25173;50.430;18.926;2023-03-18T07:22:57;98436.19;;;9.79;42.47
39487;BME280;25173;50.430;18.926;2023-03-18T07:25:58;98429.19;;;9.88;42.49
39487;BME280;25173;50.430;18.926;2023-03-18T07:28:59;98443.91;;;9.92;42.37
39487;BME280;25173;50.430;18.926;2023-03-18T07:32:01;98442.56;;;9.95;41.68
39487;BME280;25173;50.430;18.926;2023-03-18T07:35:03;98443.63;;;9.94;41.79
39487;BME280;25173;50.430;18.926;2023-03-18T07:38:05;98438.50;;;10.02;42.11
39487;BME280;25173;50.430;18.926;2023-03-18T07:41:06;98435.84;;;10.12;42.20
39487;BME280;25173;50.430;18.926;2023-03-18T07:44:07;98438.69;;;10.28;42.44
39487;BME280;25173;50.430;18.926;2023-03-18T07:47:07;98430.03;;;10.41;42.34
39487;BME280;25173;50.430;18.926;2023-03-18T07:50:09;98441.25;;;10.60;42.07
39487;BME280;25173;50.430;18.926;2023-03-18T07:53:10;98429.63;;;10.84;42.13
39487;BME280;25173;50.430;18.926;2023-03-18T07:56:11;98420.94;;;11.03;41.22
39487;BME280;25173;50.430;18.926;2023-03-18T07:59:12;98426.13;;;11.14;41.29
39487;BME280;25173;50.430;18.926;2023-03-18T08:02:13;98419.59;;;11.31;40.95
39487;BME280;25173;50.430;18.926;2023-03-18T08:05:15;98428.31;;;11.43;40.81
39487;BME280;25173;50.430;18.926;2023-03-18T08:08:16;98418.22;;;11.53;40.24
39487;BME280;25173;50.430;18.926;2023-03-18T08:11:17;98422.03;;;11.57;39.84
39487;BME280;25173;50.430;18.926;2023-03-18T08:14:18;98417.09;;;11.64;39.65
39487;BME280;25173;50.430;18.926;2023-03-18T08:17:18;98419.34;;;11.78;39.37
39487;BME280;25173;50.430;18.926;2023-03-18T08:20:20;98420.38;;;11.87;39.60
39487;BME280;25173;50.430;18.926;2023-03-18T08:23:22;98419.81;;;11.95;38.91
39487;BME280;25173;50.430;18.926;2023-03-18T08:26:23;98421.72;;;12.04;38.91
39487;BME280;25173;50.430;18.926;2023-03-18T08:29:24;98422.19;;;12.27;38.66
39487;BME280;25173;50.430;18.926;2023-03-18T08:32:24;98425.69;;;12.37;38.05
39487;BME280;25173;50.430;18.926;2023-03-18T08:35:25;98425.06;;;12.56;38.19
39487;BME280;25173;50.430;18.926;2023-03-18T08:38:25;98432.16;;;12.67;37.08
39487;BME280;25173;50.430;18.926;2023-03-18T08:41:26;98423.06;;;12.76;36.98
39487;BME280;25173;50.430;18.926;2023-03-18T08:44:27;98423.84;;;12.82;36.34
39487;BME280;25173;50.430;18.926;2023-03-18T08:47:27;98434.16;;;12.95;36.16
39487;BME280;25173;50.430;18.926;2023-03-18T08:50:28;98430.25;;;13.11;36.17
39487;BME280;25173;50.430;18.926;2023-03-18T08:53:29;98419.19;;;13.32;36.03
39487;BME280;25173;50.430;18.926;2023-03-18T08:56:30;98424.03;;;13.40;35.67
39487;BME280;25173;50.430;18.926;2023-03-18T08:59:30;98420.50;;;13.39;35.24
39487;BME280;25173;50.430;18.926;2023-03-18T09:02:31;98419.88;;;13.47;35.01
39487;BME280;25173;50.430;18.926;2023-03-18T09:05:33;98411.28;;;13.59;35.39
39487;BME280;25173;50.430;18.926;2023-03-18T09:08:33;98416.66;;;13.69;35.13
39487;BME280;25173;50.430;18.926;2023-03-18T09:11:34;98408.69;;;13.73;34.73
39487;BME280;25173;50.430;18.926;2023-03-18T09:14:35;98408.41;;;13.74;34.55
39487;BME280;25173;50.430;18.926;2023-03-18T09:17:37;98405.66;;;13.74;34.30
39487;BME280;25173;50.430;18.926;2023-03-18T09:20:39;98399.03;;;13.80;34.29
39487;BME280;25173;50.430;18.926;2023-03-18T09:23:40;98408.00;;;13.86;34.02
39487;BME280;25173;50.430;18.926;2023-03-18T09:26:41;98402.53;;;13.86;34.03
39487;BME280;25173;50.430;18.926;2023-03-18T09:29:41;98402.03;;;13.84;33.97
39487;BME280;25173;50.430;18.926;2023-03-18T09:32:42;98399.00;;;13.85;34.25
39487;BME280;25173;50.430;18.926;2023-03-18T09:35:43;98392.94;;;13.88;34.34
39487;BME280;25173;50.430;18.926;2023-03-18T09:38:44;98395.91;;;13.92;33.62
39487;BME280;25173;50.430;18.926;2023-03-18T09:44:54;98393.13;;;13.97;33.76
39487;BME280;25173;50.430;18.926;2023-03-18T09:54:34;98395.72;;;14.31;34.02
39487;BME280;25173;50.430;18.926;2023-03-18T09:57:41;98392.63;;;14.43;33.66
39487;BME280;25173;50.430;18.926;2023-03-18T10:00:44;98379.38;;;14.50;31.09
39487;BME280;25173;50.430;18.926;2023-03-18T10:04:13;98384.78;;;14.55;33.34
39487;BME280;25173;50.430;18.926;2023-03-18T10:07:16;98386.66;;;14.59;32.26
39487;BME280;25173;50.430;18.926;2023-03-18T10:10:26;98387.44;;;14.60;32.36
39487;BME280;25173;50.430;18.926;2023-03-18T10:13:32;98388.50;;;14.64;31.25
39487;BME280;25173;50.430;18.926;2023-03-18T10:16:47;98385.31;;;14.57;30.86
39487;BME280;25173;50.430;18.926;2023-03-18T10:19:52;98383.09;;;14.59;31.14
39487;BME280;25173;50.430;18.926;2023-03-18T10:23:04;98389.53;;;14.68;30.63
39487;BME280;25173;50.430;18.926;2023-03-18T10:26:20;98384.72;;;14.79;29.38
39487;BME280;25173;50.430;18.926;2023-03-18T10:36:13;98375.81;;;15.24;29.34
39487;BME280;25173;50.430;18.926;2023-03-18T10:39:20;98378.00;;;15.41;29.97
39487;BME280;25173;50.430;18.926;2023-03-18T10:42:27;98370.56;;;15.41;29.19
39487;BME280;25173;50.430;18.926;2023-03-18T10:45:32;98369.38;;;15.47;29.22
39487;BME280;25173;50.430;18.926;2023-03-18T10:48:53;98379.75;;;15.50;27.91
39487;BME280;25173;50.430;18.926;2023-03-18T10:52:04;98369.53;;;15.56;28.95
39487;BME280;25173;50.430;18.926;2023-03-18T10:55:16;98364.28;;;15.73;28.22
39487;BME280;25173;50.430;18.926;2023-03-18T10:58:18;98374.56;;;15.81;29.07
39487;BME280;25173;50.430;18.926;2023-03-18T11:01:20;98367.00;;;15.73;29.01
39487;BME280;25173;50.430;18.926;2023-03-18T11:04:26;98366.19;;;15.73;28.83
39487;BME280;25173;50.430;18.926;2023-03-18T11:07:27;98359.31;;;15.75;29.04
39487;BME280;25173;50.430;18.926;2023-03-18T11:10:32;98358.19;;;15.90;28.85
39487;BME280;25173;50.430;18.926;2023-03-18T11:13:34;98358.81;;;16.01;28.97
39487;BME280;25173;50.430;18.926;2023-03-18T11:16:39;98364.63;;;16.13;28.67
39487;BME280;25173;50.430;18.926;2023-03-18T11:19:47;98354.34;;;16.18;28.11
39487;BME280;25173;50.430;18.926;2023-03-18T11:22:49;98355.84;;;16.24;28.51
39487;BME280;25173;50.430;18.926;2023-03-18T11:25:54;98339.78;;;16.31;28.39
39487;BME280;25173;50.430;18.926;2023-03-18T11:29:03;98349.13;;;16.44;28.04
39487;BME280;25173;50.430;18.926;2023-03-18T11:32:10;98339.53;;;16.55;28.90
39487;BME280;25173;50.430;18.926;2023-03-18T11:35:24;98343.59;;;16.72;28.24
39487;BME280;25173;50.430;18.926;2023-03-18T11:38:33;98327.28;;;16.75;27.48
39487;BME280;25173;50.430;18.926;2023-03-18T11:41:36;98341.13;;;16.84;27.16
39487;BME280;25173;50.430;18.926;2023-03-18T11:44:37;98340.94;;;16.80;27.03
39487;BME280;25173;50.430;18.926;2023-03-18T11:47:37;98344.13;;;16.74;26.88
39487;BME280;25173;50.430;18.926;2023-03-18T11:50:47;98327.78;;;16.77;26.48
39487;BME280;25173;50.430;18.926;2023-03-18T11:54:08;98340.31;;;16.83;25.88
39487;BME280;25173;50.430;18.926;2023-03-18T12:00:36;98330.94;;;17.06;27.12
39487;BME280;25173;50.430;18.926;2023-03-18T12:10:30;98333.00;;;17.45;26.14
39487;BME280;25173;50.430;18.926;2023-03-18T12:14:01;98320.97;;;17.64;25.55
39487;BME280;25173;50.430;18.926;2023-03-18T12:20:50;98312.91;;;18.07;25.66
39487;BME280;25173;50.430;18.926;2023-03-18T12:34:28;98300.91;;;19.11;25.93
39487;BME280;25173;50.430;18.926;2023-03-18T12:37:43;98306.25;;;19.33;25.87
39487;BME280;25173;50.430;18.926;2023-03-18T12:47:17;98295.63;;;20.08;25.62
39487;BME280;25173;50.430;18.926;2023-03-18T12:50:23;98286.25;;;20.21;25.72
39487;BME280;25173;50.430;18.926;2023-03-18T12:53:33;98295.78;;;20.41;25.63
39487;BME280;25173;50.430;18.926;2023-03-18T12:56:38;98288.06;;;20.46;25.17
39487;BME280;25173;50.430;18.926;2023-03-18T12:59:44;98278.09;;;20.54;25.52
39487;BME280;25173;50.430;18.926;2023-03-18T13:02:52;98283.78;;;20.58;25.02
39487;BME280;25173;50.430;18.926;2023-03-18T13:06:02;98278.31;;;20.70;25.20
39487;BME280;25173;50.430;18.926;2023-03-18T13:12:34;98278.09;;;21.16;24.19
39487;BME280;25173;50.430;18.926;2023-03-18T13:15:50;98277.13;;;21.33;24.99
39487;BME280;25173;50.430;18.926;2023-03-18T13:18:55;98278.63;;;21.43;25.46
39487;BME280;25173;50.430;18.926;2023-03-18T13:25:33;98274.94;;;21.39;24.07
39487;BME280;25173;50.430;18.926;2023-03-18T13:35:27;98268.03;;;22.14;25.06
39487;BME280;25173;50.430;18.926;2023-03-18T13:38:48;98268.72;;;22.35;23.33
39487;BME280;25173;50.430;18.926;2023-03-18T13:42:18;98264.50;;;22.54;22.87
39487;BME280;25173;50.430;18.926;2023-03-18T13:45:38;98269.94;;;22.74;23.84
39487;BME280;25173;50.430;18.926;2023-03-18T13:48:39;98259.88;;;22.98;24.68
39487;BME280;25173;50.430;18.926;2023-03-18T13:51:50;98255.00;;;23.07;23.54
39487;BME280;25173;50.430;18.926;2023-03-18T13:54:52;98254.66;;;23.08;23.77
39487;BME280;25173;50.430;18.926;2023-03-18T14:04:19;98247.03;;;22.53;23.54
39487;BME280;25173;50.430;18.926;2023-03-18T14:07:20;98243.38;;;22.37;23.68
39487;BME280;25173;50.430;18.926;2023-03-18T14:10:21;98239.56;;;22.41;23.83
39487;BME280;25173;50.430;18.926;2023-03-18T14:13:26;98248.22;;;22.40;23.39
39487;BME280;25173;50.430;18.926;2023-03-18T14:19:37;98232.63;;;22.23;24.01
39487;BME280;25173;50.430;18.926;2023-03-18T14:22:39;98238.56;;;22.22;24.05
39487;BME280;25173;50.430;18.926;2023-03-18T14:25:40;98236.94;;;22.21;24.00
39487;BME280;25173;50.430;18.926;2023-03-18T14:28:45;98230.91;;;22.19;23.73
39487;BME280;25173;50.430;18.926;2023-03-18T14:31:57;98235.28;;;22.32;23.02
39487;BME280;25173;50.430;18.926;2023-03-18T14:38:23;98224.63;;;22.46;23.03
39487;BME280;25173;50.430;18.926;2023-03-18T14:41:27;98235.59;;;22.55;23.24
39487;BME280;25173;50.430;18.926;2023-03-18T14:44:51;98232.59;;;22.60;21.78
39487;BME280;25173;50.430;18.926;2023-03-18T14:47:54;98231.31;;;22.57;23.32
39487;BME280;25173;50.430;18.926;2023-03-18T14:50:57;98234.47;;;22.43;23.29
39487;BME280;25173;50.430;18.926;2023-03-18T14:54:05;98226.28;;;22.35;22.86
39487;BME280;25173;50.430;18.926;2023-03-18T14:57:07;98223.38;;;22.31;23.40
39487;BME280;25173;50.430;18.926;2023-03-18T15:00:14;98224.56;;;22.18;22.93
39487;BME280;25173;50.430;18.926;2023-03-18T15:03:28;98235.53;;;22.02;23.41
39487;BME280;25173;50.430;18.926;2023-03-18T15:06:29;98231.59;;;21.91;23.46
39487;BME280;25173;50.430;18.926;2023-03-18T15:09:31;98219.47;;;21.84;23.48
39487;BME280;25173;50.430;18.926;2023-03-18T15:12:34;98227.19;;;21.66;23.70
39487;BME280;25173;50.430;18.926;2023-03-18T15:15:36;98225.31;;;21.46;23.57
39487;BME280;25173;50.430;18.926;2023-03-18T15:18:38;98218.22;;;21.24;23.63
39487;BME280;25173;50.430;18.926;2023-03-18T15:21:39;98223.78;;;21.03;24.09
39487;BME280;25173;50.430;18.926;2023-03-18T15:24:40;98214.72;;;20.82;23.95
39487;BME280;25173;50.430;18.926;2023-03-18T15:27:41;98214.38;;;20.63;24.03
39487;BME280;25173;50.430;18.926;2023-03-18T15:30:50;98225.19;;;20.56;23.68
39487;BME280;25173;50.430;18.926;2023-03-18T15:37:41;98222.72;;;19.83;23.52
39487;BME280;25173;50.430;18.926;2023-03-18T15:40:51;98227.69;;;19.60;24.30
39487;BME280;25173;50.430;18.926;2023-03-18T15:43:54;98227.72;;;19.43;24.79
39487;BME280;25173;50.430;18.926;2023-03-18T15:47:23;98218.31;;;19.35;24.49
39487;BME280;25173;50.430;18.926;2023-03-18T15:50:28;98213.97;;;19.26;24.82
39487;BME280;25173;50.430;18.926;2023-03-18T15:53:41;98218.09;;;19.11;24.46
39487;BME280;25173;50.430;18.926;2023-03-18T15:56:46;98228.34;;;18.85;24.87
39487;BME280;25173;50.430;18.926;2023-03-18T15:59:48;98233.41;;;18.66;25.17
39487;BME280;25173;50.430;18.926;2023-03-18T16:02:49;98239.19;;;18.47;25.13
39487;BME280;25173;50.430;18.926;2023-03-18T16:05:51;98238.84;;;18.40;25.39
39487;BME280;25173;50.430;18.926;2023-03-18T16:08:52;98238.22;;;18.34;25.42
39487;BME280;25173;50.430;18.926;2023-03-18T16:11:58;98246.78;;;18.24;25.18
39487;BME280;25173;50.430;18.926;2023-03-18T16:15:01;98247.91;;;18.14;25.40
39487;BME280;25173;50.430;18.926;2023-03-18T16:18:03;98251.94;;;18.00;25.50
39487;BME280;25173;50.430;18.926;2023-03-18T16:21:03;98254.94;;;17.81;25.51
39487;BME280;25173;50.430;18.926;2023-03-18T16:24:04;98261.84;;;17.61;25.81
39487;BME280;25173;50.430;18.926;2023-03-18T16:27:05;98265.91;;;17.41;25.89
39487;BME280;25173;50.430;18.926;2023-03-18T16:30:16;98258.19;;;17.21;25.67
39487;BME280;25173;50.430;18.926;2023-03-18T16:33:19;98259.41;;;17.06;26.47
39487;BME280;25173;50.430;18.926;2023-03-18T16:36:31;98256.94;;;16.96;25.90
39487;BME280;25173;50.430;18.926;2023-03-18T16:39:34;98262.91;;;16.76;26.35
39487;BME280;25173;50.430;18.926;2023-03-18T16:42:35;98260.50;;;16.61;26.48
39487;BME280;25173;50.430;18.926;2023-03-18T16:45:37;98257.47;;;16.49;26.64
39487;BME280;25173;50.430;18.926;2023-03-18T16:48:40;98260.56;;;16.34;26.96
39487;BME280;25173;50.430;18.926;2023-03-18T16:51:41;98259.88;;;16.28;27.05
39487;BME280;25173;50.430;18.926;2023-03-18T16:54:41;98264.97;;;16.21;27.13
39487;BME280;25173;50.430;18.926;2023-03-18T16:57:50;98266.94;;;16.07;27.30
39487;BME280;25173;50.430;18.926;2023-03-18T17:00:52;98259.50;;;15.93;27.56
39487;BME280;25173;50.430;18.926;2023-03-18T17:03:52;98266.44;;;15.77;28.02
39487;BME280;25173;50.430;18.926;2023-03-18T17:06:54;98268.97;;;15.60;28.60
39487;BME280;25173;50.430;18.926;2023-03-18T17:09:55;98273.19;;;15.39;29.06
39487;BME280;25173;50.430;18.926;2023-03-18T17:12:57;98272.53;;;15.14;29.64
39487;BME280;25173;50.430;18.926;2023-03-18T17:15:59;98275.91;;;14.93;29.93
39487;BME280;25173;50.430;18.926;2023-03-18T17:18:59;98271.78;;;14.76;30.20
39487;BME280;25173;50.430;18.926;2023-03-18T17:22:01;98273.94;;;14.61;30.42
39487;BME280;25173;50.430;18.926;2023-03-18T17:25:05;98284.25;;;14.50;30.81
39487;BME280;25173;50.430;18.926;2023-03-18T17:28:07;98279.22;;;14.38;31.08
39487;BME280;25173;50.430;18.926;2023-03-18T17:31:11;98282.13;;;14.23;31.43
39487;BME280;25173;50.430;18.926;2023-03-18T17:34:12;98277.66;;;14.09;31.62
39487;BME280;25173;50.430;18.926;2023-03-18T17:37:13;98280.59;;;13.93;31.83